createdAt,value
2018-09-26T00:00:25.690Z,11.22
2018-09-26T00:02:57.426Z,11.05
2018-09-26T00:05:26.788Z,11.08
2018-09-26T00:07:55.868Z,11.09
2018-09-26T00:10:25.134Z,11.00
2018-09-26T00:12:54.597Z,10.85
2018-09-26T00:15:23.635Z,10.96
2018-09-26T00:17:52.765Z,10.97
2018-09-26T00:20:21.790Z,10.96
2018-09-26T00:22:51.001Z,10.81
2018-09-26T00:25:19.953Z,10.76
2018-09-26T00:27:48.935Z,10.70
2018-09-26T00:30:18.088Z,10.84
2018-09-26T00:32:47.628Z,10.71
2018-09-26T00:35:16.595Z,10.78
2018-09-26T00:37:46.212Z,10.77
2018-09-26T00:40:15.638Z,10.70
2018-09-26T00:42:44.720Z,10.59
2018-09-26T00:45:13.908Z,10.66
2018-09-26T00:47:43.030Z,10.59
2018-09-26T00:50:12.107Z,10.66
2018-09-26T00:52:41.177Z,10.67
2018-09-26T00:55:10.400Z,10.70
2018-09-26T00:57:39.556Z,10.68
2018-09-26T01:00:08.976Z,10.78
2018-09-26T01:02:38.361Z,10.90
2018-09-26T01:05:07.481Z,10.90
2018-09-26T01:07:36.524Z,10.95
2018-09-26T01:10:05.919Z,10.67
2018-09-26T01:12:35.327Z,10.74
2018-09-26T01:15:04.291Z,10.83
2018-09-26T01:17:33.374Z,10.80
2018-09-26T01:20:02.428Z,10.60
2018-09-26T01:22:31.659Z,10.53
2018-09-26T01:25:00.691Z,10.47
2018-09-26T01:27:33.508Z,10.49
2018-09-26T01:30:04.286Z,10.68
2018-09-26T01:32:33.510Z,10.36
2018-09-26T01:35:03.314Z,10.41
2018-09-26T01:37:32.406Z,10.09
2018-09-26T01:40:01.594Z,10.19
2018-09-26T01:42:30.889Z,10.11
2018-09-26T01:45:00.594Z,10.07
2018-09-26T01:47:30.602Z,9.83
2018-09-26T01:49:59.714Z,9.99
2018-09-26T01:52:28.735Z,10.14
2018-09-26T01:54:57.863Z,10.09
2018-09-26T01:57:27.225Z,9.93
2018-09-26T01:59:56.703Z,10.07
2018-09-26T02:02:25.936Z,9.89
2018-09-26T02:04:55.269Z,9.96
2018-09-26T02:07:24.531Z,9.96
2018-09-26T02:09:53.839Z,9.80
2018-09-26T02:12:22.975Z,9.77
2018-09-26T02:14:52.185Z,9.86
2018-09-26T02:17:21.371Z,9.73
2018-09-26T02:19:50.396Z,9.96
2018-09-26T02:22:19.441Z,9.73
2018-09-26T02:24:48.492Z,9.74
2018-09-26T02:27:17.628Z,9.78
2018-09-26T02:29:47.059Z,9.65
2018-09-26T02:32:16.133Z,9.44
2018-09-26T02:34:45.447Z,9.41
2018-09-26T02:37:14.845Z,9.77
2018-09-26T02:39:43.941Z,9.50
2018-09-26T02:42:13.344Z,9.54
2018-09-26T02:44:42.965Z,9.34
2018-09-26T02:47:12.032Z,9.31
2018-09-26T02:49:41.214Z,9.56
2018-09-26T02:52:10.547Z,9.30
2018-09-26T02:54:39.870Z,9.33
2018-09-26T02:57:08.864Z,9.39
2018-09-26T02:59:38.042Z,9.54
2018-09-26T03:02:07.241Z,9.53
2018-09-26T03:04:36.790Z,9.48
2018-09-26T03:07:06.383Z,9.66
2018-09-26T03:09:35.422Z,9.45
2018-09-26T03:12:04.517Z,9.44
2018-09-26T03:14:33.732Z,9.57
2018-09-26T03:17:03.224Z,9.35
2018-09-26T03:19:32.628Z,9.68
2018-09-26T03:22:02.120Z,9.35
2018-09-26T03:24:31.126Z,9.64
2018-09-26T03:27:00.395Z,9.72
2018-09-26T03:29:29.615Z,9.47
2018-09-26T03:31:58.633Z,9.63
2018-09-26T03:34:27.825Z,9.55
2018-09-26T03:36:57.282Z,9.51
2018-09-26T03:39:26.738Z,9.76
2018-09-26T03:41:56.367Z,9.75
2018-09-26T03:44:25.878Z,9.54
2018-09-26T03:46:54.953Z,9.66
2018-09-26T03:49:24.207Z,9.74
2018-09-26T03:51:53.532Z,10.03
2018-09-26T03:54:23.186Z,9.87
2018-09-26T03:56:52.590Z,9.88
2018-09-26T03:59:21.961Z,9.88
2018-09-26T04:01:51.034Z,10.08
2018-09-26T04:04:20.273Z,10.04
2018-09-26T04:06:49.675Z,9.85
2018-09-26T04:09:18.754Z,9.96
2018-09-26T04:11:48.085Z,9.89
2018-09-26T04:14:17.108Z,10.08
2018-09-26T04:16:46.537Z,9.94
2018-09-26T04:19:15.719Z,9.93
2018-09-26T04:21:45.029Z,9.78
2018-09-26T04:24:14.065Z,9.78
2018-09-26T04:26:43.591Z,10.07
2018-09-26T04:29:12.473Z,9.97
2018-09-26T04:31:41.650Z,9.90
2018-09-26T04:34:10.693Z,10.03
2018-09-26T04:36:39.664Z,10.00
2018-09-26T04:39:10.083Z,9.84
2018-09-26T04:41:39.258Z,9.87
2018-09-26T04:44:08.521Z,10.01
2018-09-26T04:46:37.888Z,9.94
2018-09-26T04:49:07.584Z,10.05
2018-09-26T04:51:37.091Z,9.98
2018-09-26T04:54:06.660Z,9.93
2018-09-26T04:56:35.772Z,10.00
2018-09-26T04:59:05.008Z,10.24
2018-09-26T05:01:34.463Z,10.05
2018-09-26T05:04:04.126Z,10.27
2018-09-26T05:06:33.547Z,10.19
2018-09-26T05:09:03.118Z,10.38
2018-09-26T05:11:32.758Z,10.33
2018-09-26T05:14:01.910Z,10.48
2018-09-26T05:16:31.211Z,10.58
2018-09-26T05:19:01.378Z,10.42
2018-09-26T05:21:31.180Z,10.67
2018-09-26T05:24:01.094Z,10.59
2018-09-26T05:26:30.253Z,10.68
2018-09-26T05:28:59.880Z,10.86
2018-09-26T05:31:29.514Z,10.95
2018-09-26T05:33:58.718Z,10.88
2018-09-26T05:36:27.974Z,10.89
2018-09-26T05:38:57.227Z,10.92
2018-09-26T05:41:26.601Z,11.19
2018-09-26T05:43:55.905Z,11.03
2018-09-26T05:46:24.927Z,11.29
2018-09-26T05:48:54.035Z,11.32
2018-09-26T05:51:23.236Z,11.15
2018-09-26T05:53:52.258Z,11.20
2018-09-26T05:56:21.310Z,11.26
2018-09-26T05:58:50.568Z,11.47
2018-09-26T06:01:19.760Z,11.47
2018-09-26T06:03:49.262Z,11.48
2018-09-26T06:06:18.438Z,11.26
2018-09-26T06:08:47.492Z,11.60
2018-09-26T06:11:16.526Z,11.51
2018-09-26T06:13:45.719Z,11.72
2018-09-26T06:16:14.815Z,11.86
2018-09-26T06:18:44.120Z,11.54
2018-09-26T06:21:13.106Z,11.89
2018-09-26T06:23:42.298Z,11.91
2018-09-26T06:26:11.749Z,11.81
2018-09-26T06:28:40.782Z,11.85
2018-09-26T06:31:09.952Z,11.97
2018-09-26T06:33:39.187Z,11.93
2018-09-26T06:36:08.381Z,12.04
2018-09-26T06:38:37.577Z,11.94
2018-09-26T06:41:06.623Z,12.11
2018-09-26T06:43:35.594Z,12.29
2018-09-26T06:46:05.079Z,12.31
2018-09-26T06:48:34.266Z,12.29
2018-09-26T06:51:03.823Z,12.55
2018-09-26T06:53:33.043Z,12.49
2018-09-26T06:56:02.540Z,12.52
2018-09-26T06:58:32.895Z,12.66
2018-09-26T07:01:02.020Z,12.59
2018-09-26T07:03:31.034Z,12.83
2018-09-26T07:06:00.149Z,13.08
2018-09-26T07:08:29.250Z,12.52
2018-09-26T07:10:58.299Z,12.89
2018-09-26T07:13:27.494Z,12.86
2018-09-26T07:15:56.893Z,12.98
2018-09-26T07:18:26.269Z,12.86
2018-09-26T07:20:55.746Z,13.19
2018-09-26T07:23:25.180Z,13.01
2018-09-26T07:25:54.667Z,12.95
2018-09-26T07:28:23.721Z,13.11
2018-09-26T07:30:53.386Z,13.21
2018-09-26T07:33:22.752Z,13.13
2018-09-26T07:35:51.731Z,13.13
2018-09-26T07:38:21.120Z,13.14
2018-09-26T07:40:50.835Z,13.12
2018-09-26T07:43:20.370Z,12.98
2018-09-26T07:45:49.979Z,13.33
2018-09-26T07:48:19.088Z,13.32
2018-09-26T07:50:48.470Z,13.55
2018-09-26T07:53:18.631Z,13.54
2018-09-26T07:55:48.032Z,13.56
2018-09-26T07:58:17.066Z,13.59
2018-09-26T08:00:46.470Z,13.56
2018-09-26T08:03:15.802Z,13.46
2018-09-26T08:05:45.110Z,13.71
2018-09-26T08:08:14.637Z,13.85
2018-09-26T08:10:43.654Z,13.71
2018-09-26T08:13:12.694Z,13.57
2018-09-26T08:15:42.256Z,13.57
2018-09-26T08:18:11.295Z,13.82
2018-09-26T08:20:41.268Z,13.72
2018-09-26T08:23:11.015Z,13.91
2018-09-26T08:25:40.334Z,13.72
2018-09-26T08:28:10.587Z,13.83
2018-09-26T08:30:39.769Z,14.31
2018-09-26T08:33:09.518Z,14.57
2018-09-26T08:35:39.630Z,14.45
2018-09-26T08:38:09.047Z,14.25
2018-09-26T08:40:38.629Z,14.23
2018-09-26T08:43:07.672Z,14.29
2018-09-26T08:45:37.000Z,14.34
2018-09-26T08:48:06.420Z,14.41
2018-09-26T08:50:35.658Z,14.65
2018-09-26T08:53:05.089Z,14.62
2018-09-26T08:55:34.550Z,14.71
2018-09-26T08:58:03.852Z,14.92
2018-09-26T09:00:33.366Z,15.13
2018-09-26T09:03:02.950Z,14.97
2018-09-26T09:05:32.761Z,14.93
2018-09-26T09:08:02.363Z,15.39
2018-09-26T09:10:31.491Z,14.82
2018-09-26T09:13:00.959Z,15.09
2018-09-26T09:15:30.119Z,15.11
2018-09-26T09:17:59.428Z,15.27
2018-09-26T09:20:28.686Z,14.99
2018-09-26T09:22:58.181Z,15.11
2018-09-26T09:25:27.456Z,15.31
2018-09-26T09:27:56.901Z,15.39
2018-09-26T09:30:26.762Z,15.41
2018-09-26T09:32:56.009Z,15.13
2018-09-26T09:35:25.060Z,15.15
2018-09-26T09:37:54.133Z,15.45
2018-09-26T09:40:23.391Z,15.39
2018-09-26T09:42:52.820Z,15.37
2018-09-26T09:45:22.393Z,15.66
2018-09-26T09:47:51.500Z,15.40
2018-09-26T09:50:20.638Z,15.48
2018-09-26T09:52:49.878Z,15.57
2018-09-26T09:55:19.137Z,15.65
2018-09-26T09:57:48.742Z,15.82
2018-09-26T10:00:17.803Z,15.61
2018-09-26T10:02:46.891Z,16.05
2018-09-26T10:05:16.075Z,15.69
2018-09-26T10:07:45.486Z,15.72
2018-09-26T10:10:14.542Z,16.04
2018-09-26T10:12:44.100Z,15.88
2018-09-26T10:15:13.179Z,15.82
2018-09-26T10:17:42.249Z,15.94
2018-09-26T10:20:11.341Z,15.98
2018-09-26T10:22:40.484Z,16.05
2018-09-26T10:25:09.632Z,15.95
2018-09-26T10:27:38.808Z,15.85
2018-09-26T10:30:08.269Z,15.76
2018-09-26T10:32:37.604Z,15.92
2018-09-26T10:35:06.724Z,16.17
2018-09-26T10:37:35.736Z,16.23
2018-09-26T10:40:04.713Z,16.25
2018-09-26T10:42:33.716Z,16.46
2018-09-26T10:45:02.784Z,16.60
2018-09-26T10:47:31.832Z,16.29
2018-09-26T10:50:00.852Z,16.13
2018-09-26T10:52:30.446Z,16.18
2018-09-26T10:54:59.462Z,16.50
2018-09-26T10:57:29.163Z,16.60
2018-09-26T10:59:58.269Z,16.88
2018-09-26T11:02:27.319Z,16.94
2018-09-26T11:04:56.459Z,16.76
2018-09-26T11:07:25.903Z,16.31
2018-09-26T11:09:55.531Z,16.04
2018-09-26T11:12:24.571Z,16.32
2018-09-26T11:14:53.573Z,16.68
2018-09-26T11:17:22.869Z,16.57
2018-09-26T11:19:51.891Z,16.51
2018-09-26T11:22:21.109Z,16.33
2018-09-26T11:24:50.187Z,16.98
2018-09-26T11:27:19.187Z,16.87
2018-09-26T11:29:48.206Z,16.74
2018-09-26T11:32:17.451Z,17.11
2018-09-26T11:34:46.544Z,16.93
2018-09-26T11:37:15.744Z,17.39
2018-09-26T11:39:44.871Z,16.96
2018-09-26T11:42:13.935Z,16.97
2018-09-26T11:44:43.174Z,16.81
2018-09-26T11:47:12.511Z,16.81
2018-09-26T11:49:41.628Z,16.76
2018-09-26T11:52:10.742Z,16.73
2018-09-26T11:54:39.854Z,17.21
2018-09-26T11:57:08.980Z,17.02
2018-09-26T11:59:38.081Z,16.57
2018-09-26T12:02:07.800Z,16.87
2018-09-26T12:04:37.127Z,16.88
2018-09-26T12:07:07.985Z,17.04
2018-09-26T12:09:37.389Z,17.08
2018-09-26T12:12:06.891Z,17.07
2018-09-26T12:14:36.499Z,16.43
2018-09-26T12:17:05.823Z,16.54
2018-09-26T12:19:35.226Z,16.91
2018-09-26T12:22:04.403Z,16.95
2018-09-26T12:24:33.839Z,17.00
2018-09-26T12:27:03.128Z,17.13
2018-09-26T12:29:32.562Z,17.05
2018-09-26T12:32:01.609Z,16.65
2018-09-26T12:34:31.044Z,16.75
2018-09-26T12:37:00.251Z,16.68
2018-09-26T12:39:29.658Z,16.53
2018-09-26T12:41:58.702Z,16.68
2018-09-26T12:44:27.952Z,16.99
2018-09-26T12:46:57.083Z,17.11
2018-09-26T12:49:26.467Z,17.39
2018-09-26T12:51:55.504Z,17.16
2018-09-26T12:54:24.581Z,17.39
2018-09-26T12:56:53.681Z,16.91
2018-09-26T12:59:23.087Z,16.57
2018-09-26T13:01:52.403Z,16.69
2018-09-26T13:04:21.759Z,16.30
2018-09-26T13:06:51.205Z,16.86
2018-09-26T13:09:20.506Z,16.98
2018-09-26T13:11:50.174Z,16.98
2018-09-26T13:14:19.735Z,16.44
2018-09-26T13:16:49.204Z,16.56
2018-09-26T13:19:18.368Z,16.69
2018-09-26T13:21:47.424Z,16.56
2018-09-26T13:24:16.706Z,16.43
2018-09-26T13:26:46.210Z,16.87
2018-09-26T13:29:15.607Z,17.24
2018-09-26T13:31:44.662Z,16.59
2018-09-26T13:34:14.044Z,16.69
2018-09-26T13:36:43.176Z,16.85
2018-09-26T13:39:12.407Z,16.99
2018-09-26T13:41:41.870Z,16.93
2018-09-26T13:44:11.122Z,17.22
2018-09-26T13:46:40.413Z,16.74
2018-09-26T13:49:09.435Z,16.91
2018-09-26T13:51:39.040Z,17.07
2018-09-26T13:54:09.204Z,16.48
2018-09-26T13:56:38.827Z,16.59
2018-09-26T13:59:08.309Z,16.75
2018-09-26T14:01:37.531Z,16.59
2018-09-26T14:04:06.659Z,17.14
2018-09-26T14:06:35.861Z,17.16
2018-09-26T14:09:05.763Z,17.46
2018-09-26T14:11:35.004Z,16.76
2018-09-26T14:14:04.304Z,16.73
2018-09-26T14:16:33.636Z,16.98
2018-09-26T14:19:02.931Z,17.48
2018-09-26T14:21:32.205Z,17.68
2018-09-26T14:24:01.491Z,17.05
2018-09-26T14:26:30.823Z,16.59
2018-09-26T14:29:00.399Z,17.02
2018-09-26T14:31:29.512Z,16.81
2018-09-26T14:33:59.029Z,16.81
2018-09-26T14:36:28.357Z,17.32
2018-09-26T14:38:58.213Z,17.20
2018-09-26T14:41:27.963Z,16.92
2018-09-26T14:43:57.517Z,16.99
2018-09-26T14:46:26.783Z,17.33
2018-09-26T14:48:56.019Z,17.16
2018-09-26T14:51:25.346Z,17.63
2018-09-26T14:53:54.752Z,17.65
2018-09-26T14:56:24.281Z,16.96
2018-09-26T14:58:53.425Z,16.51
2018-09-26T15:01:22.652Z,16.60
2018-09-26T15:03:51.827Z,16.69
2018-09-26T15:06:21.480Z,16.69
2018-09-26T15:08:50.928Z,16.68
2018-09-26T15:11:20.048Z,16.30
2018-09-26T15:13:49.392Z,16.31
2018-09-26T15:16:18.618Z,16.05
2018-09-26T15:18:47.722Z,16.18
2018-09-26T15:21:17.346Z,16.18
2018-09-26T15:23:47.350Z,16.49
2018-09-26T15:26:16.654Z,16.35
2018-09-26T15:28:45.787Z,16.01
2018-09-26T15:31:14.948Z,15.75
2018-09-26T15:33:44.090Z,16.01
2018-09-26T15:36:13.271Z,16.43
2018-09-26T15:38:42.495Z,16.53
2018-09-26T15:41:11.680Z,17.08
2018-09-26T15:43:41.197Z,16.64
2018-09-26T15:46:10.823Z,16.77
2018-09-26T15:48:40.034Z,16.37
2018-09-26T15:51:09.131Z,16.14
2018-09-26T15:53:38.501Z,16.02
2018-09-26T15:56:07.770Z,16.12
2018-09-26T15:58:37.019Z,15.84
2018-09-26T16:01:06.144Z,15.66
2018-09-26T16:03:35.314Z,15.65
2018-09-26T16:06:04.423Z,15.45
2018-09-26T16:08:33.544Z,15.38
2018-09-26T16:11:03.037Z,15.19
2018-09-26T16:13:32.466Z,15.26
2018-09-26T16:16:01.645Z,15.18
2018-09-26T16:18:31.512Z,15.15
2018-09-26T16:21:00.962Z,15.20
2018-09-26T16:23:30.446Z,15.17
2018-09-26T16:25:59.669Z,15.19
2018-09-26T16:28:28.793Z,15.00
2018-09-26T16:30:57.992Z,14.99
2018-09-26T16:33:27.243Z,15.10
2018-09-26T16:35:56.413Z,14.88
2018-09-26T16:38:25.869Z,14.95
2018-09-26T16:40:55.215Z,14.80
2018-09-26T16:43:24.739Z,15.03
2018-09-26T16:45:54.339Z,14.69
2018-09-26T16:48:23.766Z,14.70
2018-09-26T16:50:52.925Z,14.76
2018-09-26T16:53:22.434Z,14.98
2018-09-26T16:55:51.660Z,15.05
2018-09-26T16:58:21.390Z,14.84
2018-09-26T17:00:50.486Z,14.93
2018-09-26T17:03:19.654Z,14.82
2018-09-26T17:05:49.227Z,14.72
2018-09-26T17:08:18.650Z,14.85
2018-09-26T17:10:48.092Z,14.87
2018-09-26T17:13:18.002Z,14.73
2018-09-26T17:15:47.514Z,14.89
2018-09-26T17:18:17.105Z,14.65
2018-09-26T17:20:46.638Z,14.61
2018-09-26T17:23:16.172Z,14.54
2018-09-26T17:25:45.368Z,14.47
2018-09-26T17:28:14.609Z,14.73
2018-09-26T17:30:43.844Z,14.48
2018-09-26T17:33:13.334Z,14.24
2018-09-26T17:35:42.960Z,14.20
2018-09-26T17:38:12.243Z,14.22
2018-09-26T17:40:41.483Z,14.35
2018-09-26T17:43:11.024Z,14.22
2018-09-26T17:45:40.222Z,13.96
2018-09-26T17:48:09.454Z,13.92
2018-09-26T17:50:38.574Z,14.06
2018-09-26T17:53:07.895Z,13.88
2018-09-26T17:55:37.051Z,14.00
2018-09-26T17:58:06.244Z,13.77
2018-09-26T18:00:35.627Z,13.87
2018-09-26T18:03:04.745Z,13.67
2018-09-26T18:05:34.231Z,13.67
2018-09-26T18:08:03.471Z,13.60
2018-09-26T18:10:32.662Z,13.51
2018-09-26T18:13:01.854Z,13.49
2018-09-26T18:15:31.155Z,13.59
2018-09-26T18:18:00.367Z,13.45
2018-09-26T18:20:29.628Z,13.40
2018-09-26T18:22:58.815Z,13.32
2018-09-26T18:25:27.966Z,13.39
2018-09-26T18:27:57.125Z,13.24
2018-09-26T18:30:26.312Z,13.19
2018-09-26T18:32:55.682Z,13.13
2018-09-26T18:35:24.923Z,13.29
2018-09-26T18:37:54.111Z,13.07
2018-09-26T18:40:23.299Z,13.01
2018-09-26T18:42:52.446Z,13.01
2018-09-26T18:45:21.593Z,13.17
2018-09-26T18:47:50.694Z,12.95
2018-09-26T18:50:19.886Z,12.93
2018-09-26T18:52:49.221Z,12.83
2018-09-26T18:55:18.374Z,12.93
2018-09-26T18:57:47.498Z,12.86
2018-09-26T19:00:16.900Z,12.80
2018-09-26T19:02:46.082Z,12.79
2018-09-26T19:05:15.176Z,13.08
2018-09-26T19:07:44.314Z,12.71
2018-09-26T19:10:13.727Z,12.60
2018-09-26T19:12:43.391Z,12.54
2018-09-26T19:15:12.580Z,12.47
2018-09-26T19:17:41.744Z,12.52
2018-09-26T19:20:11.300Z,12.49
2018-09-26T19:22:40.831Z,12.52
2018-09-26T19:25:10.544Z,12.62
2018-09-26T19:27:40.090Z,12.60
2018-09-26T19:30:09.474Z,12.61
2018-09-26T19:32:39.919Z,12.53
2018-09-26T19:35:09.073Z,12.51
2018-09-26T19:37:38.220Z,12.51
2018-09-26T19:40:07.442Z,12.54
2018-09-26T19:42:36.806Z,12.44
2018-09-26T19:45:06.085Z,12.57
2018-09-26T19:47:35.424Z,12.25
2018-09-26T19:50:04.670Z,12.22
2018-09-26T19:52:33.939Z,12.23
2018-09-26T19:55:03.089Z,12.17
2018-09-26T19:57:32.670Z,12.25
2018-09-26T20:00:01.772Z,12.27
2018-09-26T20:02:31.055Z,12.29
2018-09-26T20:05:00.226Z,12.23
2018-09-26T20:07:29.498Z,12.19
2018-09-26T20:09:58.715Z,12.20
2018-09-26T20:12:27.902Z,12.20
2018-09-26T20:14:57.025Z,12.25
2018-09-26T20:17:26.215Z,12.12
2018-09-26T20:19:56.143Z,12.32
2018-09-26T20:22:25.644Z,12.02
2018-09-26T20:24:55.550Z,12.11
2018-09-26T20:27:25.027Z,12.12
2018-09-26T20:29:54.567Z,12.23
2018-09-26T20:32:23.793Z,12.10
2018-09-26T20:34:52.953Z,12.06
2018-09-26T20:37:22.098Z,11.97
2018-09-26T20:39:51.610Z,12.13
2018-09-26T20:42:20.770Z,11.95
2018-09-26T20:44:49.896Z,12.00
2018-09-26T20:47:19.319Z,11.95
2018-09-26T20:49:48.725Z,11.97
2018-09-26T20:52:18.392Z,12.07
2018-09-26T20:54:47.845Z,12.05
2018-09-26T20:57:16.991Z,11.99
2018-09-26T20:59:46.281Z,12.25
2018-09-26T21:02:15.873Z,12.24
2018-09-26T21:04:45.126Z,11.86
2018-09-26T21:07:14.284Z,11.91
2018-09-26T21:09:43.598Z,11.98
2018-09-26T21:12:12.699Z,11.96
2018-09-26T21:14:41.994Z,12.04
2018-09-26T21:17:11.742Z,12.07
2018-09-26T21:19:41.252Z,12.06
2018-09-26T21:22:11.201Z,12.00
2018-09-26T21:24:40.365Z,11.97
2018-09-26T21:27:09.626Z,12.11
2018-09-26T21:29:39.070Z,12.08
2018-09-26T21:32:08.323Z,12.12
2018-09-26T21:34:37.423Z,12.03
2018-09-26T21:37:06.514Z,12.12
2018-09-26T21:39:35.973Z,12.02
2018-09-26T21:42:05.169Z,12.15
2018-09-26T21:44:34.253Z,12.18
2018-09-26T21:47:03.637Z,12.06
2018-09-26T21:49:32.728Z,12.08
2018-09-26T21:52:01.860Z,12.10
2018-09-26T21:54:31.050Z,11.99
2018-09-26T21:57:00.167Z,12.02
2018-09-26T21:59:29.455Z,12.00
2018-09-26T22:01:58.633Z,11.93
2018-09-26T22:04:28.006Z,11.87
2018-09-26T22:06:57.510Z,11.85
2018-09-26T22:09:26.985Z,11.85
2018-09-26T22:11:56.531Z,11.87
2018-09-26T22:14:25.666Z,11.92
2018-09-26T22:16:55.115Z,11.94
2018-09-26T22:19:24.324Z,11.84
2018-09-26T22:21:53.513Z,11.75
2018-09-26T22:24:22.933Z,11.87
2018-09-26T22:26:52.046Z,11.71
2018-09-26T22:29:22.288Z,11.65
2018-09-26T22:31:51.478Z,11.75
2018-09-26T22:34:20.643Z,11.72
2018-09-26T22:36:49.802Z,11.69
2018-09-26T22:39:18.952Z,11.61
2018-09-26T22:41:48.082Z,11.67
2018-09-26T22:44:17.327Z,11.72
2018-09-26T22:46:46.449Z,11.67
2018-09-26T22:49:15.582Z,11.66
2018-09-26T22:51:44.757Z,11.64
2018-09-26T22:54:14.209Z,11.61
2018-09-26T22:56:43.747Z,11.66
2018-09-26T22:59:13.594Z,11.60
2018-09-26T23:01:42.803Z,11.47
2018-09-26T23:04:12.299Z,11.41
2018-09-26T23:06:41.782Z,11.40
2018-09-26T23:09:12.347Z,11.37
2018-09-26T23:11:41.930Z,11.22
2018-09-26T23:14:11.146Z,11.40
2018-09-26T23:16:40.332Z,11.19
2018-09-26T23:19:09.489Z,11.27
2018-09-26T23:21:38.646Z,11.24
2018-09-26T23:24:08.057Z,11.26
2018-09-26T23:26:37.553Z,11.29
2018-09-26T23:29:07.044Z,11.09
2018-09-26T23:31:36.361Z,11.26
2018-09-26T23:34:06.343Z,11.13
2018-09-26T23:36:35.801Z,11.10
2018-09-26T23:39:07.088Z,11.15
2018-09-26T23:41:36.230Z,11.03
2018-09-26T23:44:05.407Z,11.03
2018-09-26T23:46:34.693Z,10.89
2018-09-26T23:49:04.853Z,11.05
2018-09-26T23:51:34.078Z,10.95
2018-09-26T23:54:03.278Z,10.80
2018-09-26T23:56:32.446Z,10.74
2018-09-26T23:59:01.666Z,10.79
